SARI METAR and TAF weather

Enter ICAO airport designator
Station Type Date Time Source
SARI METAR 2022/12/10 01:00 UTC NOAA

SARI 100100Z 08009KT 9999 SCT045 28/23 Q1008 RMK PP000


Station Type Date Time Source
SARI Decoded METAR 2022/12/10 01:00 UTC NOAA

Iguazu Aerodrome, Argentina (SARI) 25-44S 054-28W 270M
Dec 09, 2022 - 08:00 PM EST / 2022.12.10 0100 UTC
Wind: from the E (080 degrees) at 10 MPH (9 KT):0
Visibility: greater than 7 mile(s):0
Sky conditions: partly cloudy
Temperature: 82 F (28 C)
Dew Point: 73 F (23 C)
Relative Humidity: 74%
Pressure (altimeter): 29.77 in. Hg (1008 hPa)
ob: SARI 100100Z 08009KT 9999 SCT045 28/23 Q1008 RMK PP000
cycle: 1

Station Type Date Time Source
SARI TAF 2022/12/09 18:04 UTC NOAA

TAF SARI 091700Z 0918/1018 05005KT 8000 TSRA SCT030 FEW050CB TX36/0919Z TN22/1009Z
BECMG 0923/1001 CAVOK

Example: see airport list